sensor_id;sensor_type;location;lat;lon;timestamp;pressure;altitude;pressure_sealevel;temperature;humidity
22311;BME280;11323;49.610;11.016;2023-05-19T00:02:28;98798.63;;;17.67;53.43
22311;BME280;11323;49.610;11.016;2023-05-19T00:07:32;98792.97;;;17.70;53.21
22311;BME280;11323;49.610;11.016;2023-05-19T00:12:37;98794.97;;;17.68;53.38
22311;BME280;11323;49.610;11.016;2023-05-19T00:17:37;98785.59;;;17.66;53.42
22311;BME280;11323;49.610;11.016;2023-05-19T00:22:41;98779.66;;;17.64;53.60
22311;BME280;11323;49.610;11.016;2023-05-19T00:27:44;98782.69;;;17.60;53.82
22311;BME280;11323;49.610;11.016;2023-05-19T00:32:44;98780.66;;;17.63;53.74
22311;BME280;11323;49.610;11.016;2023-05-19T00:37:44;98775.91;;;17.58;54.48
22311;BME280;11323;49.610;11.016;2023-05-19T00:42:45;98771.28;;;17.60;54.33
22311;BME280;11323;49.610;11.016;2023-05-19T00:47:46;98768.31;;;17.63;54.37
22311;BME280;11323;49.610;11.016;2023-05-19T00:52:46;98762.75;;;17.58;54.50
22311;BME280;11323;49.610;11.016;2023-05-19T00:57:48;98754.69;;;17.59;54.38
22311;BME280;11323;49.610;11.016;2023-05-19T01:02:49;98753.03;;;17.58;54.84
22311;BME280;11323;49.610;11.016;2023-05-19T01:07:50;98746.31;;;17.56;54.91
22311;BME280;11323;49.610;11.016;2023-05-19T01:12:52;98752.38;;;17.56;54.64
22311;BME280;11323;49.610;11.016;2023-05-19T01:23:11;98735.91;;;17.54;55.01
22311;BME280;11323;49.610;11.016;2023-05-19T01:29:02;98747.28;;;17.55;54.79
22311;BME280;11323;49.610;11.016;2023-05-19T01:34:08;98744.81;;;17.53;54.69
22311;BME280;11323;49.610;11.016;2023-05-19T01:39:10;98740.38;;;17.54;54.67
22311;BME280;11323;49.610;11.016;2023-05-19T01:44:11;98740.38;;;17.54;54.77
22311;BME280;11323;49.610;11.016;2023-05-19T01:49:12;98735.44;;;17.51;54.86
22311;BME280;11323;49.610;11.016;2023-05-19T01:54:12;98739.72;;;17.52;55.20
22311;BME280;11323;49.610;11.016;2023-05-19T02:04:50;98731.81;;;17.52;55.16
22311;BME280;11323;49.610;11.016;2023-05-19T02:10:04;98738.28;;;17.49;54.91
22311;BME280;11323;49.610;11.016;2023-05-19T02:20:09;98731.34;;;17.48;55.08
22311;BME280;11323;49.610;11.016;2023-05-19T02:25:10;98734.81;;;17.49;55.56
22311;BME280;11323;49.610;11.016;2023-05-19T02:30:10;98733.16;;;17.48;55.97
22311;BME280;11323;49.610;11.016;2023-05-19T02:35:11;98722.34;;;17.42;55.39
22311;BME280;11323;49.610;11.016;2023-05-19T02:40:13;98730.53;;;17.48;55.53
22311;BME280;11323;49.610;11.016;2023-05-19T02:45:14;98715.41;;;17.41;55.77
22311;BME280;11323;49.610;11.016;2023-05-19T02:50:14;98708.50;;;17.40;55.77
22311;BME280;11323;49.610;11.016;2023-05-19T02:55:15;98706.53;;;17.42;55.67
22311;BME280;11323;49.610;11.016;2023-05-19T03:00:16;98708.97;;;17.44;55.79
22311;BME280;11323;49.610;11.016;2023-05-19T03:05:18;98702.91;;;17.43;55.69
22311;BME280;11323;49.610;11.016;2023-05-19T03:10:19;98707.97;;;17.45;55.66
22311;BME280;11323;49.610;11.016;2023-05-19T03:15:19;98691.06;;;17.39;55.76
22311;BME280;11323;49.610;11.016;2023-05-19T03:20:22;98706.53;;;17.42;55.66
22311;BME280;11323;49.610;11.016;2023-05-19T03:25:24;98707.19;;;17.36;56.34
22311;BME280;11323;49.610;11.016;2023-05-19T03:30:25;98705.22;;;17.38;56.15
22311;BME280;11323;49.610;11.016;2023-05-19T03:35:37;98709.69;;;17.38;56.10
22311;BME280;11323;49.610;11.016;2023-05-19T03:40:37;98713.78;;;17.40;55.77
22311;BME280;11323;49.610;11.016;2023-05-19T03:45:42;98701.78;;;17.38;56.32
22311;BME280;11323;49.610;11.016;2023-05-19T03:51:05;98714.78;;;17.39;55.95
22311;BME280;11323;49.610;11.016;2023-05-19T03:56:06;98719.69;;;17.42;56.39
22311;BME280;11323;49.610;11.016;2023-05-19T04:01:07;98719.72;;;17.34;56.03
22311;BME280;11323;49.610;11.016;2023-05-19T04:06:07;98714.00;;;17.31;56.40
22311;BME280;11323;49.610;11.016;2023-05-19T04:11:08;98725.19;;;17.33;56.41
22311;BME280;11323;49.610;11.016;2023-05-19T04:16:09;98725.38;;;17.31;56.30
22311;BME280;11323;49.610;11.016;2023-05-19T04:21:09;98726.00;;;17.33;56.29
22311;BME280;11323;49.610;11.016;2023-05-19T04:26:11;98731.91;;;17.35;56.25
22311;BME280;11323;49.610;11.016;2023-05-19T04:31:14;98730.63;;;17.31;56.38
22311;BME280;11323;49.610;11.016;2023-05-19T04:36:15;98729.97;;;17.29;56.42
22311;BME280;11323;49.610;11.016;2023-05-19T04:41:21;98734.25;;;17.30;56.52
22311;BME280;11323;49.610;11.016;2023-05-19T04:46:22;98729.00;;;17.30;56.49
22311;BME280;11323;49.610;11.016;2023-05-19T04:51:24;98725.50;;;17.29;56.73
22311;BME280;11323;49.610;11.016;2023-05-19T04:56:27;98726.34;;;17.30;56.66
22311;BME280;11323;49.610;11.016;2023-05-19T05:01:30;98731.28;;;17.33;56.46
22311;BME280;11323;49.610;11.016;2023-05-19T05:06:32;98733.09;;;17.33;56.52
22311;BME280;11323;49.610;11.016;2023-05-19T05:11:32;98742.81;;;17.32;56.73
22311;BME280;11323;49.610;11.016;2023-05-19T05:16:34;98741.13;;;17.39;56.74
22311;BME280;11323;49.610;11.016;2023-05-19T05:21:35;98741.25;;;17.46;57.03
22311;BME280;11323;49.610;11.016;2023-05-19T05:26:36;98727.22;;;17.45;56.82
22311;BME280;11323;49.610;11.016;2023-05-19T05:31:37;98728.53;;;17.50;57.04
22311;BME280;11323;49.610;11.016;2023-05-19T05:36:37;98711.09;;;17.49;56.96
22311;BME280;11323;49.610;11.016;2023-05-19T05:41:39;98719.28;;;17.54;56.83
22311;BME280;11323;49.610;11.016;2023-05-19T05:46:44;98722.94;;;17.53;56.71
22311;BME280;11323;49.610;11.016;2023-05-19T05:51:45;98718.00;;;17.50;56.82
22311;BME280;11323;49.610;11.016;2023-05-19T05:56:46;98727.53;;;17.51;56.74
22311;BME280;11323;49.610;11.016;2023-05-19T06:01:48;98723.56;;;17.55;57.09
22311;BME280;11323;49.610;11.016;2023-05-19T06:06:52;98731.22;;;17.65;57.06
22311;BME280;11323;49.610;11.016;2023-05-19T06:11:57;98728.25;;;17.68;57.12
22311;BME280;11323;49.610;11.016;2023-05-19T06:17:05;98730.56;;;17.71;57.64
22311;BME280;11323;49.610;11.016;2023-05-19T06:22:06;98723.44;;;17.71;57.36
22311;BME280;11323;49.610;11.016;2023-05-19T06:27:07;98719.81;;;17.72;57.22
22311;BME280;11323;49.610;11.016;2023-05-19T06:32:08;98719.28;;;17.77;57.08
22311;BME280;11323;49.610;11.016;2023-05-19T06:37:09;98726.19;;;17.78;57.19
22311;BME280;11323;49.610;11.016;2023-05-19T06:42:11;98729.56;;;17.72;56.86
22311;BME280;11323;49.610;11.016;2023-05-19T06:47:24;98728.19;;;17.76;57.06
22311;BME280;11323;49.610;11.016;2023-05-19T06:52:25;98724.09;;;17.73;57.02
22311;BME280;11323;49.610;11.016;2023-05-19T06:57:27;98717.66;;;17.76;56.98
22311;BME280;11323;49.610;11.016;2023-05-19T07:02:27;98722.44;;;17.72;56.95
22311;BME280;11323;49.610;11.016;2023-05-19T07:07:28;98715.53;;;17.71;56.65
22311;BME280;11323;49.610;11.016;2023-05-19T07:12:30;98706.97;;;17.69;56.66
22311;BME280;11323;49.610;11.016;2023-05-19T07:17:30;98712.09;;;17.71;56.78
22311;BME280;11323;49.610;11.016;2023-05-19T07:22:32;98710.59;;;17.68;56.72
22311;BME280;11323;49.610;11.016;2023-05-19T07:27:36;98703.72;;;17.67;56.74
22311;BME280;11323;49.610;11.016;2023-05-19T07:32:36;98695.16;;;17.65;56.60
22311;BME280;11323;49.610;11.016;2023-05-19T07:37:37;98698.44;;;17.67;56.23
22311;BME280;11323;49.610;11.016;2023-05-19T07:42:37;98695.16;;;17.65;56.36
22311;BME280;11323;49.610;11.016;2023-05-19T07:47:37;98686.28;;;17.66;56.26
22311;BME280;11323;49.610;11.016;2023-05-19T07:52:38;98699.72;;;17.71;56.04
22311;BME280;11323;49.610;11.016;2023-05-19T07:57:38;98673.72;;;17.68;56.04
22311;BME280;11323;49.610;11.016;2023-05-19T08:02:39;98682.91;;;17.72;56.12
22311;BME280;11323;49.610;11.016;2023-05-19T08:07:40;98683.56;;;17.74;56.49
22311;BME280;11323;49.610;11.016;2023-05-19T08:12:42;98680.63;;;17.69;54.97
22311;BME280;11323;49.610;11.016;2023-05-19T08:17:43;98666.22;;;17.57;54.04
22311;BME280;11323;49.610;11.016;2023-05-19T08:22:43;98672.53;;;17.48;53.37
22311;BME280;11323;49.610;11.016;2023-05-19T08:27:44;98665.16;;;17.43;52.90
22311;BME280;11323;49.610;11.016;2023-05-19T08:32:45;98660.44;;;17.38;52.68
22311;BME280;11323;49.610;11.016;2023-05-19T08:37:46;98662.81;;;17.25;50.60
22311;BME280;11323;49.610;11.016;2023-05-19T08:42:46;98664.47;;;17.26;50.65
22311;BME280;11323;49.610;11.016;2023-05-19T08:47:47;98650.50;;;17.17;48.07
22311;BME280;11323;49.610;11.016;2023-05-19T08:53:09;98653.66;;;17.12;49.19
22311;BME280;11323;49.610;11.016;2023-05-19T08:58:13;98639.63;;;16.97;49.41
22311;BME280;11323;49.610;11.016;2023-05-19T09:03:15;98632.47;;;17.06;50.89
22311;BME280;11323;49.610;11.016;2023-05-19T09:08:17;98647.13;;;17.08;49.94
22311;BME280;11323;49.610;11.016;2023-05-19T09:13:18;98628.81;;;17.15;51.29
22311;BME280;11323;49.610;11.016;2023-05-19T09:18:18;98632.59;;;17.12;50.41
22311;BME280;11323;49.610;11.016;2023-05-19T09:23:18;98632.59;;;17.12;51.32
22311;BME280;11323;49.610;11.016;2023-05-19T09:28:27;98618.81;;;17.10;50.32
22311;BME280;11323;49.610;11.016;2023-05-19T09:33:32;98624.75;;;17.04;48.55
22311;BME280;11323;49.610;11.016;2023-05-19T09:38:39;98622.13;;;17.04;49.22
22311;BME280;11323;49.610;11.016;2023-05-19T09:43:39;98628.69;;;17.08;49.89
22311;BME280;11323;49.610;11.016;2023-05-19T09:48:40;98610.81;;;16.95;49.67
22311;BME280;11323;49.610;11.016;2023-05-19T09:53:45;98621.00;;;16.98;49.54
22311;BME280;11323;49.610;11.016;2023-05-19T09:58:45;98621.34;;;16.95;49.38
22311;BME280;11323;49.610;11.016;2023-05-19T10:03:46;98618.75;;;16.87;48.84
22311;BME280;11323;49.610;11.016;2023-05-19T10:08:48;98613.34;;;16.80;49.10
22311;BME280;11323;49.610;11.016;2023-05-19T10:13:50;98596.63;;;16.73;47.85
22311;BME280;11323;49.610;11.016;2023-05-19T10:18:51;98593.34;;;16.71;48.89
22311;BME280;11323;49.610;11.016;2023-05-19T10:23:54;98588.72;;;16.73;48.31
22311;BME280;11323;49.610;11.016;2023-05-19T10:28:55;98591.34;;;16.73;48.14
22311;BME280;11323;49.610;11.016;2023-05-19T10:39:30;98576.22;;;16.75;48.17
22311;BME280;11323;49.610;11.016;2023-05-19T10:50:03;98552.13;;;16.87;48.64
22311;BME280;11323;49.610;11.016;2023-05-19T10:55:12;98552.78;;;16.89;48.65
22311;BME280;11323;49.610;11.016;2023-05-19T11:00:27;98552.78;;;16.89;48.63
22311;BME280;11323;49.610;11.016;2023-05-19T11:05:28;98558.03;;;16.89;47.90
22311;BME280;11323;49.610;11.016;2023-05-19T11:10:29;98556.41;;;16.88;48.82
22311;BME280;11323;49.610;11.016;2023-05-19T11:15:33;98553.75;;;16.88;48.68
22311;BME280;11323;49.610;11.016;2023-05-19T11:20:37;98543.19;;;16.96;49.97
22311;BME280;11323;49.610;11.016;2023-05-19T11:25:44;98546.47;;;16.98;49.31
22311;BME280;11323;49.610;11.016;2023-05-19T11:30:46;98553.38;;;16.99;49.56
22311;BME280;11323;49.610;11.016;2023-05-19T11:35:49;98552.09;;;16.95;49.52
22311;BME280;11323;49.610;11.016;2023-05-19T11:40:53;98542.84;;;16.99;48.70
22311;BME280;11323;49.610;11.016;2023-05-19T11:45:54;98539.84;;;17.02;49.55
22311;BME280;11323;49.610;11.016;2023-05-19T11:50:54;98529.84;;;16.97;48.27
22311;BME280;11323;49.610;11.016;2023-05-19T11:56:02;98524.78;;;16.96;49.21
22311;BME280;11323;49.610;11.016;2023-05-19T12:01:03;98512.19;;;17.06;49.32
22311;BME280;11323;49.610;11.016;2023-05-19T12:06:04;98519.09;;;17.07;48.96
22311;BME280;11323;49.610;11.016;2023-05-19T12:11:05;98504.94;;;17.08;49.22
22311;BME280;11323;49.610;11.016;2023-05-19T12:16:07;98495.97;;;17.18;51.09
22311;BME280;11323;49.610;11.016;2023-05-19T12:21:08;98492.16;;;17.20;50.72
22311;BME280;11323;49.610;11.016;2023-05-19T12:26:08;98485.00;;;17.29;50.54
22311;BME280;11323;49.610;11.016;2023-05-19T12:31:09;98485.00;;;17.29;49.63
22311;BME280;11323;49.610;11.016;2023-05-19T12:36:10;98492.72;;;17.31;50.04
22311;BME280;11323;49.610;11.016;2023-05-19T12:41:13;98486.91;;;17.35;49.74
22311;BME280;11323;49.610;11.016;2023-05-19T12:46:13;98479.47;;;17.39;49.14
22311;BME280;11323;49.610;11.016;2023-05-19T12:51:18;98475.66;;;17.41;48.67
22311;BME280;11323;49.610;11.016;2023-05-19T12:56:19;98476.31;;;17.43;50.36
22311;BME280;11323;49.610;11.016;2023-05-19T13:01:21;98468.84;;;17.47;50.34
22311;BME280;11323;49.610;11.016;2023-05-19T13:06:21;98457.22;;;17.41;50.11
22311;BME280;11323;49.610;11.016;2023-05-19T13:11:22;98455.56;;;17.40;48.58
22311;BME280;11323;49.610;11.016;2023-05-19T13:16:22;98460.50;;;17.43;47.78
22311;BME280;11323;49.610;11.016;2023-05-19T13:21:22;98449.31;;;17.41;47.45
22311;BME280;11323;49.610;11.016;2023-05-19T13:26:24;98454.84;;;17.47;47.88
22311;BME280;11323;49.610;11.016;2023-05-19T13:31:24;98449.94;;;17.43;48.49
22311;BME280;11323;49.610;11.016;2023-05-19T13:36:25;98439.03;;;17.47;48.66
22311;BME280;11323;49.610;11.016;2023-05-19T13:41:27;98433.75;;;17.47;48.66
22311;BME280;11323;49.610;11.016;2023-05-19T13:46:28;98433.75;;;17.47;48.19
22311;BME280;11323;49.610;11.016;2023-05-19T13:51:28;98438.22;;;17.46;46.98
22311;BME280;11323;49.610;11.016;2023-05-19T13:56:29;98435.41;;;17.48;45.85
22311;BME280;11323;49.610;11.016;2023-05-19T14:01:30;98430.13;;;17.48;45.79
22311;BME280;11323;49.610;11.016;2023-05-19T14:06:31;98424.88;;;17.48;47.61
22311;BME280;11323;49.610;11.016;2023-05-19T14:11:32;98430.78;;;17.50;46.23
22311;BME280;11323;49.610;11.016;2023-05-19T14:16:32;98427.78;;;17.53;46.44
22311;BME280;11323;49.610;11.016;2023-05-19T14:21:33;98431.41;;;17.52;46.29
22311;BME280;11323;49.610;11.016;2023-05-19T14:26:33;98418.44;;;17.50;47.76
22311;BME280;11323;49.610;11.016;2023-05-19T14:31:34;98427.78;;;17.53;47.91
22311;BME280;11323;49.610;11.016;2023-05-19T14:36:34;98407.25;;;17.48;48.27
22311;BME280;11323;49.610;11.016;2023-05-19T14:41:34;98415.25;;;17.55;47.88
22311;BME280;11323;49.610;11.016;2023-05-19T14:46:35;98403.06;;;17.54;48.99
22311;BME280;11323;49.610;11.016;2023-05-19T14:51:35;98403.06;;;17.54;48.92
22311;BME280;11323;49.610;11.016;2023-05-19T14:56:36;98411.41;;;17.57;48.78
22311;BME280;11323;49.610;11.016;2023-05-19T15:01:36;98402.69;;;17.57;47.78
22311;BME280;11323;49.610;11.016;2023-05-19T15:06:36;98401.88;;;17.56;48.81
22311;BME280;11323;49.610;11.016;2023-05-19T15:11:37;98402.69;;;17.57;48.03
22311;BME280;11323;49.610;11.016;2023-05-19T15:16:37;98412.06;;;17.59;48.63
22311;BME280;11323;49.610;11.016;2023-05-19T15:21:38;98405.31;;;17.57;47.57
22311;BME280;11323;49.610;11.016;2023-05-19T15:26:38;98405.31;;;17.57;47.78
22311;BME280;11323;49.610;11.016;2023-05-19T15:31:39;98403.16;;;17.60;48.63
22311;BME280;11323;49.610;11.016;2023-05-19T15:36:39;98409.97;;;17.55;49.04
22311;BME280;11323;49.610;11.016;2023-05-19T15:41:40;98419.69;;;17.54;48.23
22311;BME280;11323;49.610;11.016;2023-05-19T15:46:40;98420.53;;;17.55;48.28
22311;BME280;11323;49.610;11.016;2023-05-19T15:51:41;98425.41;;;17.58;48.68
22311;BME280;11323;49.610;11.016;2023-05-19T15:56:41;98417.69;;;17.56;48.85
22311;BME280;11323;49.610;11.016;2023-05-19T16:01:42;98409.78;;;17.56;47.84
22311;BME280;11323;49.610;11.016;2023-05-19T16:06:42;98418.50;;;17.57;48.59
22311;BME280;11323;49.610;11.016;2023-05-19T16:11:43;98409.97;;;17.55;48.82
22311;BME280;11323;49.610;11.016;2023-05-19T16:16:44;98406.69;;;17.53;48.58
22311;BME280;11323;49.610;11.016;2023-05-19T16:21:44;98396.81;;;17.55;49.13
22311;BME280;11323;49.610;11.016;2023-05-19T16:26:45;98403.50;;;17.57;49.19
22311;BME280;11323;49.610;11.016;2023-05-19T16:31:47;98392.97;;;17.57;49.11
22311;BME280;11323;49.610;11.016;2023-05-19T16:36:48;98401.31;;;17.61;49.11
22311;BME280;11323;49.610;11.016;2023-05-19T16:41:48;98399.03;;;17.58;48.65
22311;BME280;11323;49.610;11.016;2023-05-19T16:46:49;98398.88;;;17.59;49.20
22311;BME280;11323;49.610;11.016;2023-05-19T16:51:49;98397.41;;;17.57;49.34
22311;BME280;11323;49.610;11.016;2023-05-19T16:56:51;98392.63;;;17.60;48.89
22311;BME280;11323;49.610;11.016;2023-05-19T17:01:52;98391.97;;;17.58;49.09
22311;BME280;11323;49.610;11.016;2023-05-19T17:06:52;98401.53;;;17.59;48.95
22311;BME280;11323;49.610;11.016;2023-05-19T17:11:53;98397.06;;;17.60;48.78
22311;BME280;11323;49.610;11.016;2023-05-19T17:16:54;98404.25;;;17.66;49.64
22311;BME280;11323;49.610;11.016;2023-05-19T17:21:54;98397.41;;;17.72;50.28
22311;BME280;11323;49.610;11.016;2023-05-19T17:26:54;98392.47;;;17.84;50.80
22311;BME280;11323;49.610;11.016;2023-05-19T17:31:55;98402.97;;;18.14;50.05
22311;BME280;11323;49.610;11.016;2023-05-19T17:36:55;98404.38;;;18.10;50.14
22311;BME280;11323;49.610;11.016;2023-05-19T17:41:55;98393.84;;;17.95;50.02
22311;BME280;11323;49.610;11.016;2023-05-19T17:46:56;98402.47;;;17.88;49.92
22311;BME280;11323;49.610;11.016;2023-05-19T17:51:57;98402.03;;;17.85;51.19
22311;BME280;11323;49.610;11.016;2023-05-19T17:57:00;98404.56;;;17.78;50.23
22311;BME280;11323;49.610;11.016;2023-05-19T18:02:01;98400.88;;;17.72;49.68
22311;BME280;11323;49.610;11.016;2023-05-19T18:07:03;98406.69;;;17.68;50.31
22311;BME280;11323;49.610;11.016;2023-05-19T18:12:04;98411.50;;;17.64;50.06
22311;BME280;11323;49.610;11.016;2023-05-19T18:17:05;98409.59;;;17.58;50.46
22311;BME280;11323;49.610;11.016;2023-05-19T18:22:06;98412.41;;;17.56;50.85
22311;BME280;11323;49.610;11.016;2023-05-19T18:27:06;98413.22;;;17.57;50.17
22311;BME280;11323;49.610;11.016;2023-05-19T18:32:06;98411.63;;;17.56;49.99
22311;BME280;11323;49.610;11.016;2023-05-19T18:37:07;98405.06;;;17.52;50.44
22311;BME280;11323;49.610;11.016;2023-05-19T18:42:07;98407.41;;;17.47;50.40
22311;BME280;11323;49.610;11.016;2023-05-19T18:47:08;98415.16;;;17.48;49.72
22311;BME280;11323;49.610;11.016;2023-05-19T18:52:08;98407.41;;;17.47;50.52
22311;BME280;11323;49.610;11.016;2023-05-19T18:57:08;98412.59;;;17.40;50.87
22311;BME280;11323;49.610;11.016;2023-05-19T19:02:09;98415.06;;;17.41;51.01
22311;BME280;11323;49.610;11.016;2023-05-19T19:07:09;98418.69;;;17.40;50.83
22311;BME280;11323;49.610;11.016;2023-05-19T19:12:10;98430.88;;;17.41;50.38
22311;BME280;11323;49.610;11.016;2023-05-19T19:17:10;98434.84;;;17.37;51.10
22311;BME280;11323;49.610;11.016;2023-05-19T19:22:11;98441.13;;;17.36;51.32
22311;BME280;11323;49.610;11.016;2023-05-19T19:27:11;98446.13;;;17.31;51.60
22311;BME280;11323;49.610;11.016;2023-05-19T19:32:11;98450.22;;;17.34;51.66
22311;BME280;11323;49.610;11.016;2023-05-19T19:37:12;98456.13;;;17.51;52.44
22311;BME280;11323;49.610;11.016;2023-05-19T19:42:14;98448.56;;;17.63;52.74
22311;BME280;11323;49.610;11.016;2023-05-19T19:47:15;98448.66;;;17.69;52.25
22311;BME280;11323;49.610;11.016;2023-05-19T19:52:15;98454.22;;;17.74;53.01
22311;BME280;11323;49.610;11.016;2023-05-19T19:57:16;98464.22;;;17.79;53.13
22311;BME280;11323;49.610;11.016;2023-05-19T20:02:16;98460.66;;;17.87;53.23
22311;BME280;11323;49.610;11.016;2023-05-19T20:07:16;98469.22;;;17.89;53.56
22311;BME280;11323;49.610;11.016;2023-05-19T20:12:20;98460.31;;;17.90;53.47
22311;BME280;11323;49.610;11.016;2023-05-19T20:17:21;98464.19;;;17.94;53.46
22311;BME280;11323;49.610;11.016;2023-05-19T20:22:21;98460.41;;;17.97;53.74
22311;BME280;11323;49.610;11.016;2023-05-19T20:27:21;98456.75;;;17.98;53.80
22311;BME280;11323;49.610;11.016;2023-05-19T20:32:22;98452.75;;;18.02;53.85
22311;BME280;11323;49.610;11.016;2023-05-19T20:37:22;98448.28;;;18.02;53.78
22311;BME280;11323;49.610;11.016;2023-05-19T20:42:22;98443.66;;;18.04;53.72
22311;BME280;11323;49.610;11.016;2023-05-19T20:47:23;98447.94;;;18.05;53.89
22311;BME280;11323;49.610;11.016;2023-05-19T20:52:23;98440.84;;;18.06;54.45
22311;BME280;11323;49.610;11.016;2023-05-19T20:57:24;98444.28;;;18.06;53.92
22311;BME280;11323;49.610;11.016;2023-05-19T21:02:24;98446.56;;;18.10;54.42
22311;BME280;11323;49.610;11.016;2023-05-19T21:07:25;98458.56;;;18.12;54.61
22311;BME280;11323;49.610;11.016;2023-05-19T21:12:25;98455.72;;;18.14;53.99
22311;BME280;11323;49.610;11.016;2023-05-19T21:17:28;98453.94;;;18.14;53.95
22311;BME280;11323;49.610;11.016;2023-05-19T21:22:28;98452.94;;;18.15;54.58
22311;BME280;11323;49.610;11.016;2023-05-19T21:27:29;98449.91;;;18.18;54.45
22311;BME280;11323;49.610;11.016;2023-05-19T21:32:31;98437.91;;;18.16;54.57
22311;BME280;11323;49.610;11.016;2023-05-19T21:37:32;98443.19;;;18.16;54.54
22311;BME280;11323;49.610;11.016;2023-05-19T21:42:33;98449.28;;;18.16;54.33
22311;BME280;11323;49.610;11.016;2023-05-19T21:47:33;98450.44;;;18.14;54.52
22311;BME280;11323;49.610;11.016;2023-05-19T21:52:34;98444.56;;;18.12;54.31
22311;BME280;11323;49.610;11.016;2023-05-19T21:57:35;98441.94;;;18.12;54.28
22311;BME280;11323;49.610;11.016;2023-05-19T22:02:35;98440.28;;;18.11;54.06
22311;BME280;11323;49.610;11.016;2023-05-19T22:07:36;98439.47;;;18.10;54.54
22311;BME280;11323;49.610;11.016;2023-05-19T22:12:36;98440.66;;;18.08;53.79
22311;BME280;11323;49.610;11.016;2023-05-19T22:17:37;98440.66;;;18.08;53.78
22311;BME280;11323;49.610;11.016;2023-05-19T22:22:38;98437.38;;;18.05;53.81
22311;BME280;11323;49.610;11.016;2023-05-19T22:27:38;98433.75;;;18.06;53.93
22311;BME280;11323;49.610;11.016;2023-05-19T22:32:38;98426.03;;;18.05;54.13
22311;BME280;11323;49.610;11.016;2023-05-19T22:37:39;98425.41;;;18.03;54.13
22311;BME280;11323;49.610;11.016;2023-05-19T22:42:39;98424.75;;;18.01;53.71
22311;BME280;11323;49.610;11.016;2023-05-19T22:47:40;98420.28;;;18.01;53.77
22311;BME280;11323;49.610;11.016;2023-05-19T22:52:40;98404.84;;;17.98;54.47
22311;BME280;11323;49.610;11.016;2023-05-19T22:57:40;98406.50;;;17.99;54.60
22311;BME280;11323;49.610;11.016;2023-05-19T23:02:41;98405.84;;;17.97;54.02
22311;BME280;11323;49.610;11.016;2023-05-19T23:07:41;98402.53;;;17.95;54.11
22311;BME280;11323;49.610;11.016;2023-05-19T23:12:41;98410.47;;;17.95;54.13
22311;BME280;11323;49.610;11.016;2023-05-19T23:17:42;98390.72;;;17.91;54.26
22311;BME280;11323;49.610;11.016;2023-05-19T23:22:42;98385.44;;;17.91;54.20
22311;BME280;11323;49.610;11.016;2023-05-19T23:27:43;98379.56;;;17.89;53.79
22311;BME280;11323;49.610;11.016;2023-05-19T23:32:45;98379.56;;;17.89;54.58
22311;BME280;11323;49.610;11.016;2023-05-19T23:37:45;98376.94;;;17.89;53.84
22311;BME280;11323;49.610;11.016;2023-05-19T23:42:46;98369.03;;;17.89;53.74
22311;BME280;11323;49.610;11.016;2023-05-19T23:47:46;98374.47;;;17.87;54.10
22311;BME280;11323;49.610;11.016;2023-05-19T23:52:47;98377.50;;;17.84;54.46
22311;BME280;11323;49.610;11.016;2023-05-19T23:57:47;98376.66;;;17.84;54.42
